sensor_id;sensor_type;location;lat;lon;timestamp;P1;durP1;ratioP1;P2;durP2;ratioP2
13303;SDS011;6720;51.958;4.540;2023-05-07T00:00:44;32.87;;;28.83;;
13303;SDS011;6720;51.958;4.540;2023-05-07T00:03:09;35.43;;;29.33;;
13303;SDS011;6720;51.958;4.540;2023-05-07T00:05:36;33.40;;;28.80;;
13303;SDS011;6720;51.958;4.540;2023-05-07T00:08:02;35.77;;;29.70;;
13303;SDS011;6720;51.958;4.540;2023-05-07T00:10:28;38.90;;;30.40;;
13303;SDS011;6720;51.958;4.540;2023-05-07T00:12:53;34.73;;;29.77;;
13303;SDS011;6720;51.958;4.540;2023-05-07T00:15:19;36.03;;;31.37;;
13303;SDS011;6720;51.958;4.540;2023-05-07T00:17:45;35.57;;;30.07;;
13303;SDS011;6720;51.958;4.540;2023-05-07T00:20:10;35.27;;;30.03;;
13303;SDS011;6720;51.958;4.540;2023-05-07T00:22:36;36.37;;;31.07;;
13303;SDS011;6720;51.958;4.540;2023-05-07T00:25:01;38.87;;;31.63;;
13303;SDS011;6720;51.958;4.540;2023-05-07T00:27:26;35.43;;;29.80;;
13303;SDS011;6720;51.958;4.540;2023-05-07T00:29:52;33.97;;;29.33;;
13303;SDS011;6720;51.958;4.540;2023-05-07T00:32:17;35.20;;;31.13;;
13303;SDS011;6720;51.958;4.540;2023-05-07T00:34:43;32.97;;;29.40;;
13303;SDS011;6720;51.958;4.540;2023-05-07T00:37:09;31.93;;;28.53;;
13303;SDS011;6720;51.958;4.540;2023-05-07T00:39:36;36.17;;;29.90;;
13303;SDS011;6720;51.958;4.540;2023-05-07T00:42:02;35.07;;;30.43;;
13303;SDS011;6720;51.958;4.540;2023-05-07T00:44:28;33.27;;;29.13;;
13303;SDS011;6720;51.958;4.540;2023-05-07T00:46:54;30.73;;;27.43;;
13303;SDS011;6720;51.958;4.540;2023-05-07T00:49:34;33.90;;;29.30;;
13303;SDS011;6720;51.958;4.540;2023-05-07T00:52:31;34.13;;;28.77;;
13303;SDS011;6720;51.958;4.540;2023-05-07T00:55:36;29.67;;;26.37;;
13303;SDS011;6720;51.958;4.540;2023-05-07T00:58:33;29.40;;;26.20;;
13303;SDS011;6720;51.958;4.540;2023-05-07T01:01:32;29.63;;;25.80;;
13303;SDS011;6720;51.958;4.540;2023-05-07T01:04:07;31.83;;;27.70;;
13303;SDS011;6720;51.958;4.540;2023-05-07T01:13:45;29.97;;;26.73;;
13303;SDS011;6720;51.958;4.540;2023-05-07T01:16:23;29.47;;;26.37;;
13303;SDS011;6720;51.958;4.540;2023-05-07T01:19:28;30.60;;;26.77;;
13303;SDS011;6720;51.958;4.540;2023-05-07T01:22:29;28.97;;;25.50;;
13303;SDS011;6720;51.958;4.540;2023-05-07T01:24:57;29.57;;;26.40;;
13303;SDS011;6720;51.958;4.540;2023-05-07T01:27:24;30.43;;;27.20;;
13303;SDS011;6720;51.958;4.540;2023-05-07T01:29:50;30.93;;;26.93;;
13303;SDS011;6720;51.958;4.540;2023-05-07T01:32:15;32.33;;;27.13;;
13303;SDS011;6720;51.958;4.540;2023-05-07T01:34:43;29.60;;;25.83;;
13303;SDS011;6720;51.958;4.540;2023-05-07T01:37:13;32.23;;;27.33;;
13303;SDS011;6720;51.958;4.540;2023-05-07T01:39:39;31.67;;;28.27;;
13303;SDS011;6720;51.958;4.540;2023-05-07T01:42:05;32.23;;;27.70;;
13303;SDS011;6720;51.958;4.540;2023-05-07T01:44:30;30.50;;;27.23;;
13303;SDS011;6720;51.958;4.540;2023-05-07T01:46:56;34.33;;;29.50;;
13303;SDS011;6720;51.958;4.540;2023-05-07T01:49:22;34.13;;;30.50;;
13303;SDS011;6720;51.958;4.540;2023-05-07T01:51:49;33.17;;;29.23;;
13303;SDS011;6720;51.958;4.540;2023-05-07T01:54:15;36.17;;;31.27;;
13303;SDS011;6720;51.958;4.540;2023-05-07T01:56:41;33.30;;;29.73;;
13303;SDS011;6720;51.958;4.540;2023-05-07T01:59:07;33.50;;;30.00;;
13303;SDS011;6720;51.958;4.540;2023-05-07T02:01:35;35.93;;;31.90;;
13303;SDS011;6720;51.958;4.540;2023-05-07T02:04:01;34.60;;;31.00;;
13303;SDS011;6720;51.958;4.540;2023-05-07T02:06:26;35.23;;;31.53;;
13303;SDS011;6720;51.958;4.540;2023-05-07T02:08:51;37.00;;;33.07;;
13303;SDS011;6720;51.958;4.540;2023-05-07T02:11:17;37.13;;;33.13;;
13303;SDS011;6720;51.958;4.540;2023-05-07T02:13:42;35.47;;;31.53;;
13303;SDS011;6720;51.958;4.540;2023-05-07T02:16:08;35.30;;;31.47;;
13303;SDS011;6720;51.958;4.540;2023-05-07T02:18:33;37.60;;;33.50;;
13303;SDS011;6720;51.958;4.540;2023-05-07T02:20:59;36.37;;;32.57;;
13303;SDS011;6720;51.958;4.540;2023-05-07T02:23:25;37.27;;;33.27;;
13303;SDS011;6720;51.958;4.540;2023-05-07T02:25:50;36.27;;;32.50;;
13303;SDS011;6720;51.958;4.540;2023-05-07T02:28:16;37.60;;;33.77;;
13303;SDS011;6720;51.958;4.540;2023-05-07T02:30:41;38.07;;;34.00;;
13303;SDS011;6720;51.958;4.540;2023-05-07T02:33:16;37.10;;;33.23;;
13303;SDS011;6720;51.958;4.540;2023-05-07T02:36:17;38.23;;;34.13;;
13303;SDS011;6720;51.958;4.540;2023-05-07T02:39:09;36.73;;;32.83;;
13303;SDS011;6720;51.958;4.540;2023-05-07T02:41:34;36.13;;;32.50;;
13303;SDS011;6720;51.958;4.540;2023-05-07T02:43:59;37.20;;;33.47;;
13303;SDS011;6720;51.958;4.540;2023-05-07T02:46:25;38.13;;;34.13;;
13303;SDS011;6720;51.958;4.540;2023-05-07T02:48:50;35.90;;;32.10;;
13303;SDS011;6720;51.958;4.540;2023-05-07T02:51:19;36.40;;;32.87;;
13303;SDS011;6720;51.958;4.540;2023-05-07T02:53:45;35.60;;;32.40;;
13303;SDS011;6720;51.958;4.540;2023-05-07T02:56:11;34.93;;;31.43;;
13303;SDS011;6720;51.958;4.540;2023-05-07T02:58:36;35.87;;;32.03;;
13303;SDS011;6720;51.958;4.540;2023-05-07T03:01:01;34.90;;;31.47;;
13303;SDS011;6720;51.958;4.540;2023-05-07T03:03:27;34.13;;;30.67;;
13303;SDS011;6720;51.958;4.540;2023-05-07T03:05:52;34.50;;;31.13;;
13303;SDS011;6720;51.958;4.540;2023-05-07T03:08:18;33.67;;;30.27;;
13303;SDS011;6720;51.958;4.540;2023-05-07T03:10:43;34.83;;;31.43;;
13303;SDS011;6720;51.958;4.540;2023-05-07T03:13:09;33.77;;;30.47;;
13303;SDS011;6720;51.958;4.540;2023-05-07T03:15:34;34.43;;;30.93;;
13303;SDS011;6720;51.958;4.540;2023-05-07T03:18:00;33.30;;;30.20;;
13303;SDS011;6720;51.958;4.540;2023-05-07T03:20:25;33.67;;;30.17;;
13303;SDS011;6720;51.958;4.540;2023-05-07T03:22:50;31.93;;;29.00;;
13303;SDS011;6720;51.958;4.540;2023-05-07T03:25:16;33.67;;;30.30;;
13303;SDS011;6720;51.958;4.540;2023-05-07T03:27:41;32.40;;;29.20;;
13303;SDS011;6720;51.958;4.540;2023-05-07T03:30:07;33.00;;;29.70;;
13303;SDS011;6720;51.958;4.540;2023-05-07T03:32:34;33.20;;;29.97;;
13303;SDS011;6720;51.958;4.540;2023-05-07T03:35:00;33.97;;;30.60;;
13303;SDS011;6720;51.958;4.540;2023-05-07T03:37:26;33.07;;;29.83;;
13303;SDS011;6720;51.958;4.540;2023-05-07T03:39:51;31.13;;;28.33;;
13303;SDS011;6720;51.958;4.540;2023-05-07T03:42:16;34.00;;;30.77;;
13303;SDS011;6720;51.958;4.540;2023-05-07T03:44:42;31.47;;;28.57;;
13303;SDS011;6720;51.958;4.540;2023-05-07T03:47:07;32.07;;;29.00;;
13303;SDS011;6720;51.958;4.540;2023-05-07T03:49:33;32.63;;;29.30;;
13303;SDS011;6720;51.958;4.540;2023-05-07T03:51:58;32.83;;;29.83;;
13303;SDS011;6720;51.958;4.540;2023-05-07T03:54:23;31.00;;;28.20;;
13303;SDS011;6720;51.958;4.540;2023-05-07T03:56:49;30.53;;;27.63;;
13303;SDS011;6720;51.958;4.540;2023-05-07T03:59:14;31.63;;;28.63;;
13303;SDS011;6720;51.958;4.540;2023-05-07T04:01:40;30.50;;;27.70;;
13303;SDS011;6720;51.958;4.540;2023-05-07T04:04:05;29.80;;;26.97;;
13303;SDS011;6720;51.958;4.540;2023-05-07T04:06:31;29.80;;;27.00;;
13303;SDS011;6720;51.958;4.540;2023-05-07T04:08:56;29.83;;;26.97;;
13303;SDS011;6720;51.958;4.540;2023-05-07T04:11:22;29.67;;;26.87;;
13303;SDS011;6720;51.958;4.540;2023-05-07T04:13:47;29.10;;;26.60;;
13303;SDS011;6720;51.958;4.540;2023-05-07T04:16:13;29.43;;;26.47;;
13303;SDS011;6720;51.958;4.540;2023-05-07T04:18:38;29.20;;;26.30;;
13303;SDS011;6720;51.958;4.540;2023-05-07T04:21:04;29.50;;;26.70;;
13303;SDS011;6720;51.958;4.540;2023-05-07T04:23:29;28.47;;;25.80;;
13303;SDS011;6720;51.958;4.540;2023-05-07T04:25:55;28.60;;;25.70;;
13303;SDS011;6720;51.958;4.540;2023-05-07T04:28:21;29.33;;;26.43;;
13303;SDS011;6720;51.958;4.540;2023-05-07T04:30:46;28.83;;;25.97;;
13303;SDS011;6720;51.958;4.540;2023-05-07T04:33:11;27.43;;;24.93;;
13303;SDS011;6720;51.958;4.540;2023-05-07T04:35:38;29.10;;;26.37;;
13303;SDS011;6720;51.958;4.540;2023-05-07T04:38:04;26.90;;;24.40;;
13303;SDS011;6720;51.958;4.540;2023-05-07T04:40:29;27.17;;;24.73;;
13303;SDS011;6720;51.958;4.540;2023-05-07T04:42:55;28.83;;;26.00;;
13303;SDS011;6720;51.958;4.540;2023-05-07T04:45:20;27.53;;;24.87;;
13303;SDS011;6720;51.958;4.540;2023-05-07T04:47:46;27.50;;;25.10;;
13303;SDS011;6720;51.958;4.540;2023-05-07T04:50:11;27.10;;;24.43;;
13303;SDS011;6720;51.958;4.540;2023-05-07T04:52:36;27.33;;;24.83;;
13303;SDS011;6720;51.958;4.540;2023-05-07T04:55:02;26.80;;;24.13;;
13303;SDS011;6720;51.958;4.540;2023-05-07T04:57:28;25.97;;;23.47;;
13303;SDS011;6720;51.958;4.540;2023-05-07T04:59:53;27.50;;;24.90;;
13303;SDS011;6720;51.958;4.540;2023-05-07T05:02:19;26.10;;;23.63;;
13303;SDS011;6720;51.958;4.540;2023-05-07T05:04:44;27.37;;;24.57;;
13303;SDS011;6720;51.958;4.540;2023-05-07T05:07:10;25.27;;;22.97;;
13303;SDS011;6720;51.958;4.540;2023-05-07T05:09:36;25.30;;;23.00;;
13303;SDS011;6720;51.958;4.540;2023-05-07T05:12:01;25.37;;;23.07;;
13303;SDS011;6720;51.958;4.540;2023-05-07T05:14:27;26.10;;;23.47;;
13303;SDS011;6720;51.958;4.540;2023-05-07T05:16:52;26.00;;;23.63;;
13303;SDS011;6720;51.958;4.540;2023-05-07T05:19:18;24.50;;;22.30;;
13303;SDS011;6720;51.958;4.540;2023-05-07T05:21:43;25.37;;;22.97;;
13303;SDS011;6720;51.958;4.540;2023-05-07T05:24:09;25.43;;;23.10;;
13303;SDS011;6720;51.958;4.540;2023-05-07T05:26:34;24.10;;;21.87;;
13303;SDS011;6720;51.958;4.540;2023-05-07T05:29:00;24.30;;;21.90;;
13303;SDS011;6720;51.958;4.540;2023-05-07T05:31:25;25.20;;;22.73;;
13303;SDS011;6720;51.958;4.540;2023-05-07T05:33:51;24.70;;;22.37;;
13303;SDS011;6720;51.958;4.540;2023-05-07T05:36:16;24.77;;;22.43;;
13303;SDS011;6720;51.958;4.540;2023-05-07T05:38:42;25.03;;;22.57;;
13303;SDS011;6720;51.958;4.540;2023-05-07T05:41:07;25.03;;;22.67;;
13303;SDS011;6720;51.958;4.540;2023-05-07T05:43:34;23.70;;;21.40;;
13303;SDS011;6720;51.958;4.540;2023-05-07T05:45:59;24.87;;;22.57;;
13303;SDS011;6720;51.958;4.540;2023-05-07T05:48:25;25.20;;;22.93;;
13303;SDS011;6720;51.958;4.540;2023-05-07T05:50:50;22.70;;;20.57;;
13303;SDS011;6720;51.958;4.540;2023-05-07T05:53:16;25.00;;;22.70;;
13303;SDS011;6720;51.958;4.540;2023-05-07T05:55:41;24.50;;;22.33;;
13303;SDS011;6720;51.958;4.540;2023-05-07T05:58:07;27.17;;;24.47;;
13303;SDS011;6720;51.958;4.540;2023-05-07T06:00:33;27.00;;;24.43;;
13303;SDS011;6720;51.958;4.540;2023-05-07T06:02:59;27.90;;;25.40;;
13303;SDS011;6720;51.958;4.540;2023-05-07T06:05:24;26.83;;;24.27;;
13303;SDS011;6720;51.958;4.540;2023-05-07T06:07:50;27.17;;;24.57;;
13303;SDS011;6720;51.958;4.540;2023-05-07T06:10:15;27.17;;;24.57;;
13303;SDS011;6720;51.958;4.540;2023-05-07T06:12:41;28.03;;;25.43;;
13303;SDS011;6720;51.958;4.540;2023-05-07T06:15:06;29.60;;;26.93;;
13303;SDS011;6720;51.958;4.540;2023-05-07T06:17:32;28.47;;;25.87;;
13303;SDS011;6720;51.958;4.540;2023-05-07T06:19:57;29.80;;;26.83;;
13303;SDS011;6720;51.958;4.540;2023-05-07T06:22:23;29.50;;;26.70;;
13303;SDS011;6720;51.958;4.540;2023-05-07T06:24:48;29.70;;;26.83;;
13303;SDS011;6720;51.958;4.540;2023-05-07T06:27:14;32.00;;;28.77;;
13303;SDS011;6720;51.958;4.540;2023-05-07T06:29:39;30.97;;;27.90;;
13303;SDS011;6720;51.958;4.540;2023-05-07T06:32:11;33.03;;;29.90;;
13303;SDS011;6720;51.958;4.540;2023-05-07T06:34:38;32.00;;;28.90;;
13303;SDS011;6720;51.958;4.540;2023-05-07T06:37:04;31.67;;;28.60;;
13303;SDS011;6720;51.958;4.540;2023-05-07T06:39:30;33.43;;;30.03;;
13303;SDS011;6720;51.958;4.540;2023-05-07T06:41:56;33.37;;;29.87;;
13303;SDS011;6720;51.958;4.540;2023-05-07T06:44:22;33.13;;;30.07;;
13303;SDS011;6720;51.958;4.540;2023-05-07T06:46:48;36.10;;;32.60;;
13303;SDS011;6720;51.958;4.540;2023-05-07T06:49:13;32.87;;;29.37;;
13303;SDS011;6720;51.958;4.540;2023-05-07T06:51:39;33.67;;;30.50;;
13303;SDS011;6720;51.958;4.540;2023-05-07T06:54:04;32.70;;;29.50;;
13303;SDS011;6720;51.958;4.540;2023-05-07T06:56:39;35.93;;;32.40;;
13303;SDS011;6720;51.958;4.540;2023-05-07T06:59:27;34.70;;;31.57;;
13303;SDS011;6720;51.958;4.540;2023-05-07T07:02:04;32.27;;;29.00;;
13303;SDS011;6720;51.958;4.540;2023-05-07T07:04:30;30.50;;;27.70;;
13303;SDS011;6720;51.958;4.540;2023-05-07T07:06:55;31.53;;;28.27;;
13303;SDS011;6720;51.958;4.540;2023-05-07T07:09:21;30.70;;;27.80;;
13303;SDS011;6720;51.958;4.540;2023-05-07T07:11:48;30.57;;;27.83;;
13303;SDS011;6720;51.958;4.540;2023-05-07T07:14:14;32.20;;;29.20;;
13303;SDS011;6720;51.958;4.540;2023-05-07T07:16:39;31.37;;;28.30;;
13303;SDS011;6720;51.958;4.540;2023-05-07T07:19:05;30.07;;;27.27;;
13303;SDS011;6720;51.958;4.540;2023-05-07T07:21:30;29.97;;;27.17;;
13303;SDS011;6720;51.958;4.540;2023-05-07T07:23:59;30.60;;;27.80;;
13303;SDS011;6720;51.958;4.540;2023-05-07T07:26:25;28.67;;;25.83;;
13303;SDS011;6720;51.958;4.540;2023-05-07T07:28:51;30.30;;;27.30;;
13303;SDS011;6720;51.958;4.540;2023-05-07T07:31:16;29.90;;;26.97;;
13303;SDS011;6720;51.958;4.540;2023-05-07T07:33:44;29.23;;;26.50;;
13303;SDS011;6720;51.958;4.540;2023-05-07T07:36:11;29.97;;;27.07;;
13303;SDS011;6720;51.958;4.540;2023-05-07T07:38:36;28.43;;;25.67;;
13303;SDS011;6720;51.958;4.540;2023-05-07T07:41:02;29.60;;;26.87;;
13303;SDS011;6720;51.958;4.540;2023-05-07T07:43:27;25.87;;;23.47;;
13303;SDS011;6720;51.958;4.540;2023-05-07T07:45:53;26.43;;;24.03;;
13303;SDS011;6720;51.958;4.540;2023-05-07T07:48:22;26.27;;;23.67;;
13303;SDS011;6720;51.958;4.540;2023-05-07T07:50:48;25.50;;;23.30;;
13303;SDS011;6720;51.958;4.540;2023-05-07T07:53:15;30.73;;;27.97;;
13303;SDS011;6720;51.958;4.540;2023-05-07T07:55:40;29.77;;;27.03;;
13303;SDS011;6720;51.958;4.540;2023-05-07T07:58:06;62.43;;;55.97;;
13303;SDS011;6720;51.958;4.540;2023-05-07T08:00:31;29.63;;;26.93;;
13303;SDS011;6720;51.958;4.540;2023-05-07T08:02:57;45.37;;;40.87;;
13303;SDS011;6720;51.958;4.540;2023-05-07T08:05:22;51.50;;;46.13;;
13303;SDS011;6720;51.958;4.540;2023-05-07T08:07:50;36.87;;;33.20;;
13303;SDS011;6720;51.958;4.540;2023-05-07T08:10:18;31.20;;;28.10;;
13303;SDS011;6720;51.958;4.540;2023-05-07T08:12:47;26.80;;;24.30;;
13303;SDS011;6720;51.958;4.540;2023-05-07T08:15:14;31.40;;;28.37;;
13303;SDS011;6720;51.958;4.540;2023-05-07T08:17:40;47.50;;;42.73;;
13303;SDS011;6720;51.958;4.540;2023-05-07T08:20:06;29.83;;;26.93;;
13303;SDS011;6720;51.958;4.540;2023-05-07T08:22:34;31.50;;;28.33;;
13303;SDS011;6720;51.958;4.540;2023-05-07T08:25:03;33.13;;;29.97;;
13303;SDS011;6720;51.958;4.540;2023-05-07T08:27:28;49.53;;;44.60;;
13303;SDS011;6720;51.958;4.540;2023-05-07T08:29:54;29.43;;;26.73;;
13303;SDS011;6720;51.958;4.540;2023-05-07T08:32:20;26.97;;;24.47;;
13303;SDS011;6720;51.958;4.540;2023-05-07T08:34:46;33.97;;;30.67;;
13303;SDS011;6720;51.958;4.540;2023-05-07T08:37:11;32.37;;;29.20;;
13303;SDS011;6720;51.958;4.540;2023-05-07T08:39:37;40.47;;;36.47;;
13303;SDS011;6720;51.958;4.540;2023-05-07T08:42:02;30.97;;;28.23;;
13303;SDS011;6720;51.958;4.540;2023-05-07T08:44:32;38.57;;;34.87;;
13303;SDS011;6720;51.958;4.540;2023-05-07T08:46:59;30.70;;;27.80;;
13303;SDS011;6720;51.958;4.540;2023-05-07T08:49:27;30.87;;;28.07;;
13303;SDS011;6720;51.958;4.540;2023-05-07T08:51:53;30.10;;;27.37;;
13303;SDS011;6720;51.958;4.540;2023-05-07T08:54:18;28.83;;;26.33;;
13303;SDS011;6720;51.958;4.540;2023-05-07T08:56:45;28.07;;;25.57;;
13303;SDS011;6720;51.958;4.540;2023-05-07T08:59:10;29.63;;;26.80;;
13303;SDS011;6720;51.958;4.540;2023-05-07T09:01:36;25.17;;;22.87;;
13303;SDS011;6720;51.958;4.540;2023-05-07T09:04:03;26.03;;;23.73;;
13303;SDS011;6720;51.958;4.540;2023-05-07T09:06:29;27.40;;;24.90;;
13303;SDS011;6720;51.958;4.540;2023-05-07T09:08:57;29.17;;;26.37;;
13303;SDS011;6720;51.958;4.540;2023-05-07T09:11:26;28.53;;;25.73;;
13303;SDS011;6720;51.958;4.540;2023-05-07T09:13:55;32.60;;;29.53;;
13303;SDS011;6720;51.958;4.540;2023-05-07T09:16:23;26.37;;;23.97;;
13303;SDS011;6720;51.958;4.540;2023-05-07T09:18:50;25.30;;;22.97;;
13303;SDS011;6720;51.958;4.540;2023-05-07T09:21:17;21.03;;;19.07;;
13303;SDS011;6720;51.958;4.540;2023-05-07T09:23:47;23.83;;;21.53;;
13303;SDS011;6720;51.958;4.540;2023-05-07T09:26:23;22.03;;;19.97;;
13303;SDS011;6720;51.958;4.540;2023-05-07T09:28:49;24.90;;;22.60;;
13303;SDS011;6720;51.958;4.540;2023-05-07T09:31:15;19.17;;;17.33;;
13303;SDS011;6720;51.958;4.540;2023-05-07T09:33:40;19.70;;;17.83;;
13303;SDS011;6720;51.958;4.540;2023-05-07T09:36:06;19.97;;;18.03;;
13303;SDS011;6720;51.958;4.540;2023-05-07T09:38:33;23.87;;;21.50;;
13303;SDS011;6720;51.958;4.540;2023-05-07T09:41:10;24.83;;;22.20;;
13303;SDS011;6720;51.958;4.540;2023-05-07T09:43:47;25.40;;;22.50;;
13303;SDS011;6720;51.958;4.540;2023-05-07T09:46:39;25.20;;;22.50;;
13303;SDS011;6720;51.958;4.540;2023-05-07T09:49:07;20.57;;;18.60;;
13303;SDS011;6720;51.958;4.540;2023-05-07T09:51:48;15.97;;;14.20;;
13303;SDS011;6720;51.958;4.540;2023-05-07T09:54:15;16.97;;;15.43;;
13303;SDS011;6720;51.958;4.540;2023-05-07T09:56:42;18.47;;;16.67;;
13303;SDS011;6720;51.958;4.540;2023-05-07T09:59:10;17.97;;;16.27;;
13303;SDS011;6720;51.958;4.540;2023-05-07T10:01:38;19.37;;;17.33;;
13303;SDS011;6720;51.958;4.540;2023-05-07T10:04:07;14.97;;;13.20;;
13303;SDS011;6720;51.958;4.540;2023-05-07T10:06:34;17.17;;;13.80;;
13303;SDS011;6720;51.958;4.540;2023-05-07T10:09:00;14.40;;;13.00;;
13303;SDS011;6720;51.958;4.540;2023-05-07T10:11:25;12.07;;;10.10;;
13303;SDS011;6720;51.958;4.540;2023-05-07T10:13:52;14.07;;;10.80;;
13303;SDS011;6720;51.958;4.540;2023-05-07T10:16:17;10.40;;;8.67;;
13303;SDS011;6720;51.958;4.540;2023-05-07T10:18:43;10.87;;;7.43;;
13303;SDS011;6720;51.958;4.540;2023-05-07T10:21:11;10.97;;;8.60;;
13303;SDS011;6720;51.958;4.540;2023-05-07T10:23:50;14.67;;;12.33;;
13303;SDS011;6720;51.958;4.540;2023-05-07T10:26:20;12.00;;;10.80;;
13303;SDS011;6720;51.958;4.540;2023-05-07T10:28:48;13.70;;;11.77;;
13303;SDS011;6720;51.958;4.540;2023-05-07T10:34:00;11.30;;;10.10;;
13303;SDS011;6720;51.958;4.540;2023-05-07T10:36:27;20.20;;;18.20;;
13303;SDS011;6720;51.958;4.540;2023-05-07T10:38:53;18.67;;;16.67;;
13303;SDS011;6720;51.958;4.540;2023-05-07T10:41:20;13.93;;;12.57;;
13303;SDS011;6720;51.958;4.540;2023-05-07T10:43:46;12.50;;;11.10;;
13303;SDS011;6720;51.958;4.540;2023-05-07T10:46:14;16.27;;;14.07;;
13303;SDS011;6720;51.958;4.540;2023-05-07T10:51:29;22.10;;;19.47;;
13303;SDS011;6720;51.958;4.540;2023-05-07T11:01:55;14.73;;;13.27;;
13303;SDS011;6720;51.958;4.540;2023-05-07T11:04:27;16.10;;;14.50;;
13303;SDS011;6720;51.958;4.540;2023-05-07T11:12:45;23.13;;;20.73;;
13303;SDS011;6720;51.958;4.540;2023-05-07T11:15:06;17.07;;;15.60;;
13303;SDS011;6720;51.958;4.540;2023-05-07T11:17:32;17.63;;;15.93;;
13303;SDS011;6720;51.958;4.540;2023-05-07T11:19:59;15.90;;;14.43;;
13303;SDS011;6720;51.958;4.540;2023-05-07T11:25:05;15.40;;;13.80;;
13303;SDS011;6720;51.958;4.540;2023-05-07T11:27:32;16.23;;;14.73;;
13303;SDS011;6720;51.958;4.540;2023-05-07T11:29:58;16.73;;;15.00;;
13303;SDS011;6720;51.958;4.540;2023-05-07T11:32:24;20.27;;;18.13;;
13303;SDS011;6720;51.958;4.540;2023-05-07T11:34:53;20.67;;;18.67;;
13303;SDS011;6720;51.958;4.540;2023-05-07T11:37:20;20.67;;;18.67;;
13303;SDS011;6720;51.958;4.540;2023-05-07T11:39:47;19.53;;;17.80;;
13303;SDS011;6720;51.958;4.540;2023-05-07T11:42:25;21.23;;;19.13;;
13303;SDS011;6720;51.958;4.540;2023-05-07T11:44:54;21.47;;;19.47;;
13303;SDS011;6720;51.958;4.540;2023-05-07T11:47:20;19.80;;;18.07;;
13303;SDS011;6720;51.958;4.540;2023-05-07T11:49:47;23.37;;;21.00;;
13303;SDS011;6720;51.958;4.540;2023-05-07T11:52:13;24.17;;;21.70;;
13303;SDS011;6720;51.958;4.540;2023-05-07T11:54:39;23.47;;;21.20;;
13303;SDS011;6720;51.958;4.540;2023-05-07T11:57:04;33.23;;;28.67;;
13303;SDS011;6720;51.958;4.540;2023-05-07T11:59:37;28.03;;;24.13;;
13303;SDS011;6720;51.958;4.540;2023-05-07T12:02:03;27.67;;;24.97;;
13303;SDS011;6720;51.958;4.540;2023-05-07T12:04:29;27.60;;;22.63;;
13303;SDS011;6720;51.958;4.540;2023-05-07T12:06:55;25.87;;;23.33;;
13303;SDS011;6720;51.958;4.540;2023-05-07T12:09:20;26.83;;;24.50;;
13303;SDS011;6720;51.958;4.540;2023-05-07T12:11:46;24.20;;;22.00;;
13303;SDS011;6720;51.958;4.540;2023-05-07T12:14:11;21.90;;;19.90;;
13303;SDS011;6720;51.958;4.540;2023-05-07T12:16:38;22.33;;;20.23;;
13303;SDS011;6720;51.958;4.540;2023-05-07T12:19:06;20.43;;;18.47;;
13303;SDS011;6720;51.958;4.540;2023-05-07T12:21:33;23.00;;;20.80;;
13303;SDS011;6720;51.958;4.540;2023-05-07T12:23:59;20.63;;;18.93;;
13303;SDS011;6720;51.958;4.540;2023-05-07T12:26:25;20.73;;;18.83;;
13303;SDS011;6720;51.958;4.540;2023-05-07T12:28:50;31.07;;;27.97;;
13303;SDS011;6720;51.958;4.540;2023-05-07T12:31:16;25.00;;;22.57;;
13303;SDS011;6720;51.958;4.540;2023-05-07T12:33:42;22.73;;;20.73;;
13303;SDS011;6720;51.958;4.540;2023-05-07T12:36:07;29.00;;;26.07;;
13303;SDS011;6720;51.958;4.540;2023-05-07T12:38:37;31.87;;;28.73;;
13303;SDS011;6720;51.958;4.540;2023-05-07T12:41:03;23.33;;;21.03;;
13303;SDS011;6720;51.958;4.540;2023-05-07T12:43:29;21.80;;;19.43;;
13303;SDS011;6720;51.958;4.540;2023-05-07T12:45:56;44.63;;;39.03;;
13303;SDS011;6720;51.958;4.540;2023-05-07T12:48:25;13.60;;;12.20;;
13303;SDS011;6720;51.958;4.540;2023-05-07T12:50:53;15.17;;;13.50;;
13303;SDS011;6720;51.958;4.540;2023-05-07T12:53:20;15.27;;;13.07;;
13303;SDS011;6720;51.958;4.540;2023-05-07T12:55:48;11.40;;;8.17;;
13303;SDS011;6720;51.958;4.540;2023-05-07T12:58:24;13.93;;;12.47;;
13303;SDS011;6720;51.958;4.540;2023-05-07T13:00:53;37.83;;;33.50;;
13303;SDS011;6720;51.958;4.540;2023-05-07T13:03:35;22.03;;;16.53;;
13303;SDS011;6720;51.958;4.540;2023-05-07T13:06:02;31.50;;;24.60;;
13303;SDS011;6720;51.958;4.540;2023-05-07T13:08:31;37.87;;;28.90;;
13303;SDS011;6720;51.958;4.540;2023-05-07T13:10:58;26.17;;;21.63;;
13303;SDS011;6720;51.958;4.540;2023-05-07T13:13:25;25.77;;;22.07;;
13303;SDS011;6720;51.958;4.540;2023-05-07T13:15:50;38.07;;;27.67;;
13303;SDS011;6720;51.958;4.540;2023-05-07T13:18:16;40.50;;;27.73;;
13303;SDS011;6720;51.958;4.540;2023-05-07T13:20:42;40.23;;;29.60;;
13303;SDS011;6720;51.958;4.540;2023-05-07T13:23:07;38.47;;;25.30;;
13303;SDS011;6720;51.958;4.540;2023-05-07T13:25:33;39.10;;;30.67;;
13303;SDS011;6720;51.958;4.540;2023-05-07T13:27:58;31.07;;;27.03;;
13303;SDS011;6720;51.958;4.540;2023-05-07T13:30:24;33.63;;;27.83;;
13303;SDS011;6720;51.958;4.540;2023-05-07T13:32:49;36.40;;;29.07;;
13303;SDS011;6720;51.958;4.540;2023-05-07T13:35:15;40.43;;;29.27;;
13303;SDS011;6720;51.958;4.540;2023-05-07T13:37:41;35.93;;;28.97;;
13303;SDS011;6720;51.958;4.540;2023-05-07T13:40:07;37.70;;;30.27;;
13303;SDS011;6720;51.958;4.540;2023-05-07T13:42:33;40.17;;;31.80;;
13303;SDS011;6720;51.958;4.540;2023-05-07T13:44:58;38.07;;;31.20;;
13303;SDS011;6720;51.958;4.540;2023-05-07T13:47:23;41.83;;;30.97;;
13303;SDS011;6720;51.958;4.540;2023-05-07T13:49:49;36.10;;;31.03;;
13303;SDS011;6720;51.958;4.540;2023-05-07T13:52:15;42.03;;;36.13;;
13303;SDS011;6720;51.958;4.540;2023-05-07T13:54:41;138.60;;;123.70;;
13303;SDS011;6720;51.958;4.540;2023-05-07T13:57:06;43.40;;;38.27;;
13303;SDS011;6720;51.958;4.540;2023-05-07T13:59:32;40.97;;;36.53;;
13303;SDS011;6720;51.958;4.540;2023-05-07T14:01:58;41.40;;;32.90;;
13303;SDS011;6720;51.958;4.540;2023-05-07T14:04:23;38.97;;;33.10;;
13303;SDS011;6720;51.958;4.540;2023-05-07T14:06:49;45.77;;;36.37;;
13303;SDS011;6720;51.958;4.540;2023-05-07T14:09:14;40.97;;;34.93;;
13303;SDS011;6720;51.958;4.540;2023-05-07T14:11:40;41.10;;;35.83;;
13303;SDS011;6720;51.958;4.540;2023-05-07T14:14:06;42.10;;;36.90;;
13303;SDS011;6720;51.958;4.540;2023-05-07T14:16:31;40.77;;;36.07;;
13303;SDS011;6720;51.958;4.540;2023-05-07T14:18:57;40.73;;;36.33;;
13303;SDS011;6720;51.958;4.540;2023-05-07T14:21:22;41.57;;;34.63;;
13303;SDS011;6720;51.958;4.540;2023-05-07T14:23:48;56.83;;;49.43;;
13303;SDS011;6720;51.958;4.540;2023-05-07T14:26:13;41.63;;;37.17;;
13303;SDS011;6720;51.958;4.540;2023-05-07T14:28:40;41.80;;;35.33;;
13303;SDS011;6720;51.958;4.540;2023-05-07T14:31:11;45.07;;;36.63;;
13303;SDS011;6720;51.958;4.540;2023-05-07T14:33:36;41.60;;;37.13;;
13303;SDS011;6720;51.958;4.540;2023-05-07T14:36:02;42.73;;;38.13;;
13303;SDS011;6720;51.958;4.540;2023-05-07T14:38:28;44.90;;;38.50;;
13303;SDS011;6720;51.958;4.540;2023-05-07T14:40:54;43.13;;;36.83;;
13303;SDS011;6720;51.958;4.540;2023-05-07T14:43:21;48.50;;;39.07;;
13303;SDS011;6720;51.958;4.540;2023-05-07T14:45:46;44.20;;;37.67;;
13303;SDS011;6720;51.958;4.540;2023-05-07T14:48:12;51.03;;;45.27;;
13303;SDS011;6720;51.958;4.540;2023-05-07T14:50:40;44.37;;;37.83;;
13303;SDS011;6720;51.958;4.540;2023-05-07T14:53:06;40.40;;;36.00;;
13303;SDS011;6720;51.958;4.540;2023-05-07T14:55:31;46.17;;;40.73;;
13303;SDS011;6720;51.958;4.540;2023-05-07T14:57:57;43.20;;;38.00;;
13303;SDS011;6720;51.958;4.540;2023-05-07T15:00:22;41.73;;;36.33;;
13303;SDS011;6720;51.958;4.540;2023-05-07T15:02:48;43.33;;;37.73;;
13303;SDS011;6720;51.958;4.540;2023-05-07T15:05:13;38.47;;;34.30;;